sensor_id;sensor_type;location;lat;lon;timestamp;P1;durP1;ratioP1;P2;durP2;ratioP2
68310;SDS011;55157;51.036;17.058;2023-06-10T00:01:11;12.00;;;10.70;;
68310;SDS011;55157;51.036;17.058;2023-06-10T00:03:37;17.13;;;11.43;;
68310;SDS011;55157;51.036;17.058;2023-06-10T00:06:02;15.48;;;11.60;;
68310;SDS011;55157;51.036;17.058;2023-06-10T00:08:28;17.50;;;11.90;;
68310;SDS011;55157;51.036;17.058;2023-06-10T00:10:53;13.68;;;12.27;;
68310;SDS011;55157;51.036;17.058;2023-06-10T00:13:18;13.85;;;10.93;;
68310;SDS011;55157;51.036;17.058;2023-06-10T00:15:43;12.55;;;11.07;;
68310;SDS011;55157;51.036;17.058;2023-06-10T00:18:09;14.60;;;10.98;;
68310;SDS011;55157;51.036;17.058;2023-06-10T00:20:35;11.20;;;10.00;;
68310;SDS011;55157;51.036;17.058;2023-06-10T00:23:01;14.52;;;11.70;;
68310;SDS011;55157;51.036;17.058;2023-06-10T00:25:26;11.18;;;10.07;;
68310;SDS011;55157;51.036;17.058;2023-06-10T00:27:51;18.23;;;10.75;;
68310;SDS011;55157;51.036;17.058;2023-06-10T00:30:16;11.68;;;10.48;;
68310;SDS011;55157;51.036;17.058;2023-06-10T00:32:42;11.13;;;10.02;;
68310;SDS011;55157;51.036;17.058;2023-06-10T00:35:07;11.57;;;9.95;;
68310;SDS011;55157;51.036;17.058;2023-06-10T00:37:34;10.05;;;9.02;;
68310;SDS011;55157;51.036;17.058;2023-06-10T00:39:59;11.10;;;8.75;;
68310;SDS011;55157;51.036;17.058;2023-06-10T00:42:24;11.80;;;9.45;;
68310;SDS011;55157;51.036;17.058;2023-06-10T00:44:50;14.20;;;9.95;;
68310;SDS011;55157;51.036;17.058;2023-06-10T00:47:15;12.15;;;9.18;;
68310;SDS011;55157;51.036;17.058;2023-06-10T00:49:40;13.35;;;9.82;;
68310;SDS011;55157;51.036;17.058;2023-06-10T00:52:06;11.93;;;10.02;;
68310;SDS011;55157;51.036;17.058;2023-06-10T00:54:33;12.55;;;9.90;;
68310;SDS011;55157;51.036;17.058;2023-06-10T00:56:59;14.43;;;10.73;;
68310;SDS011;55157;51.036;17.058;2023-06-10T00:59:25;13.38;;;10.68;;
68310;SDS011;55157;51.036;17.058;2023-06-10T01:01:50;13.95;;;10.20;;
68310;SDS011;55157;51.036;17.058;2023-06-10T01:04:16;18.08;;;11.43;;
68310;SDS011;55157;51.036;17.058;2023-06-10T01:06:41;12.70;;;11.23;;
68310;SDS011;55157;51.036;17.058;2023-06-10T01:09:13;14.15;;;10.32;;
68310;SDS011;55157;51.036;17.058;2023-06-10T01:11:46;17.05;;;10.90;;
68310;SDS011;55157;51.036;17.058;2023-06-10T01:14:12;16.35;;;11.30;;
68310;SDS011;55157;51.036;17.058;2023-06-10T01:16:38;16.08;;;11.63;;
68310;SDS011;55157;51.036;17.058;2023-06-10T01:19:03;13.82;;;10.23;;
68310;SDS011;55157;51.036;17.058;2023-06-10T01:21:30;15.75;;;11.10;;
68310;SDS011;55157;51.036;17.058;2023-06-10T01:23:55;16.25;;;10.75;;
68310;SDS011;55157;51.036;17.058;2023-06-10T01:26:22;15.23;;;11.13;;
68310;SDS011;55157;51.036;17.058;2023-06-10T01:28:51;13.25;;;10.68;;
68310;SDS011;55157;51.036;17.058;2023-06-10T01:31:20;13.50;;;11.32;;
68310;SDS011;55157;51.036;17.058;2023-06-10T01:33:49;16.88;;;12.18;;
68310;SDS011;55157;51.036;17.058;2023-06-10T01:36:16;16.50;;;12.07;;
68310;SDS011;55157;51.036;17.058;2023-06-10T01:38:44;20.65;;;13.20;;
68310;SDS011;55157;51.036;17.058;2023-06-10T01:41:09;12.60;;;11.27;;
68310;SDS011;55157;51.036;17.058;2023-06-10T01:43:37;13.52;;;11.25;;
68310;SDS011;55157;51.036;17.058;2023-06-10T01:46:02;14.48;;;12.35;;
68310;SDS011;55157;51.036;17.058;2023-06-10T01:48:27;12.90;;;11.50;;
68310;SDS011;55157;51.036;17.058;2023-06-10T01:50:53;15.65;;;11.82;;
68310;SDS011;55157;51.036;17.058;2023-06-10T01:53:18;16.02;;;13.07;;
68310;SDS011;55157;51.036;17.058;2023-06-10T01:55:45;12.68;;;11.32;;
68310;SDS011;55157;51.036;17.058;2023-06-10T01:58:10;16.10;;;11.50;;
68310;SDS011;55157;51.036;17.058;2023-06-10T02:00:35;14.07;;;11.65;;
68310;SDS011;55157;51.036;17.058;2023-06-10T02:03:01;12.43;;;11.10;;
68310;SDS011;55157;51.036;17.058;2023-06-10T02:05:26;14.48;;;11.15;;
68310;SDS011;55157;51.036;17.058;2023-06-10T02:07:51;11.77;;;10.57;;
68310;SDS011;55157;51.036;17.058;2023-06-10T02:10:17;12.82;;;10.68;;
68310;SDS011;55157;51.036;17.058;2023-06-10T02:12:43;13.88;;;10.48;;
68310;SDS011;55157;51.036;17.058;2023-06-10T02:15:08;13.50;;;11.82;;
68310;SDS011;55157;51.036;17.058;2023-06-10T02:17:34;11.43;;;10.27;;
68310;SDS011;55157;51.036;17.058;2023-06-10T02:19:59;12.05;;;10.85;;
68310;SDS011;55157;51.036;17.058;2023-06-10T02:22:24;11.88;;;10.68;;
68310;SDS011;55157;51.036;17.058;2023-06-10T02:24:49;14.55;;;11.93;;
68310;SDS011;55157;51.036;17.058;2023-06-10T02:27:15;12.40;;;11.20;;
68310;SDS011;55157;51.036;17.058;2023-06-10T02:29:42;14.02;;;11.65;;
68310;SDS011;55157;51.036;17.058;2023-06-10T02:32:07;12.63;;;11.13;;
68310;SDS011;55157;51.036;17.058;2023-06-10T02:34:33;13.32;;;10.75;;
68310;SDS011;55157;51.036;17.058;2023-06-10T02:36:58;13.10;;;11.88;;
68310;SDS011;55157;51.036;17.058;2023-06-10T02:39:23;12.93;;;11.63;;
68310;SDS011;55157;51.036;17.058;2023-06-10T02:41:48;13.32;;;11.93;;
68310;SDS011;55157;51.036;17.058;2023-06-10T02:44:14;14.73;;;10.98;;
68310;SDS011;55157;51.036;17.058;2023-06-10T02:46:40;13.07;;;11.75;;
68310;SDS011;55157;51.036;17.058;2023-06-10T02:49:06;12.90;;;11.52;;
68310;SDS011;55157;51.036;17.058;2023-06-10T02:51:31;15.10;;;13.15;;
68310;SDS011;55157;51.036;17.058;2023-06-10T02:53:56;16.63;;;12.77;;
68310;SDS011;55157;51.036;17.058;2023-06-10T02:56:21;13.73;;;12.32;;
68310;SDS011;55157;51.036;17.058;2023-06-10T02:58:47;13.90;;;12.48;;
68310;SDS011;55157;51.036;17.058;2023-06-10T03:01:12;17.63;;;11.65;;
68310;SDS011;55157;51.036;17.058;2023-06-10T03:03:39;15.65;;;12.40;;
68310;SDS011;55157;51.036;17.058;2023-06-10T03:06:04;15.80;;;11.60;;
68310;SDS011;55157;51.036;17.058;2023-06-10T03:08:29;15.20;;;11.10;;
68310;SDS011;55157;51.036;17.058;2023-06-10T03:10:55;13.05;;;11.43;;
68310;SDS011;55157;51.036;17.058;2023-06-10T03:13:20;13.52;;;11.65;;
68310;SDS011;55157;51.036;17.058;2023-06-10T03:15:45;17.73;;;13.50;;
68310;SDS011;55157;51.036;17.058;2023-06-10T03:18:10;13.90;;;12.00;;
68310;SDS011;55157;51.036;17.058;2023-06-10T03:20:37;13.70;;;12.35;;
68310;SDS011;55157;51.036;17.058;2023-06-10T03:23:03;13.95;;;12.38;;
68310;SDS011;55157;51.036;17.058;2023-06-10T03:25:29;13.05;;;11.30;;
68310;SDS011;55157;51.036;17.058;2023-06-10T03:27:54;12.63;;;10.85;;
68310;SDS011;55157;51.036;17.058;2023-06-10T03:30:19;13.88;;;11.70;;
68310;SDS011;55157;51.036;17.058;2023-06-10T03:32:44;14.27;;;11.90;;
68310;SDS011;55157;51.036;17.058;2023-06-10T03:35:10;13.10;;;10.55;;
68310;SDS011;55157;51.036;17.058;2023-06-10T03:37:36;12.95;;;11.75;;
68310;SDS011;55157;51.036;17.058;2023-06-10T03:40:02;15.88;;;10.75;;
68310;SDS011;55157;51.036;17.058;2023-06-10T03:42:27;13.02;;;10.35;;
68310;SDS011;55157;51.036;17.058;2023-06-10T03:44:52;15.13;;;11.43;;
68310;SDS011;55157;51.036;17.058;2023-06-10T03:47:17;12.77;;;11.43;;
68310;SDS011;55157;51.036;17.058;2023-06-10T03:49:43;12.38;;;11.02;;
68310;SDS011;55157;51.036;17.058;2023-06-10T03:52:08;14.43;;;10.45;;
68310;SDS011;55157;51.036;17.058;2023-06-10T03:54:34;12.18;;;10.55;;
68310;SDS011;55157;51.036;17.058;2023-06-10T03:57:00;13.50;;;10.57;;
68310;SDS011;55157;51.036;17.058;2023-06-10T03:59:25;13.27;;;10.13;;
68310;SDS011;55157;51.036;17.058;2023-06-10T04:01:50;14.07;;;11.02;;
68310;SDS011;55157;51.036;17.058;2023-06-10T04:04:16;11.52;;;9.82;;
68310;SDS011;55157;51.036;17.058;2023-06-10T04:06:41;11.63;;;10.07;;
68310;SDS011;55157;51.036;17.058;2023-06-10T04:09:06;12.95;;;11.18;;
68310;SDS011;55157;51.036;17.058;2023-06-10T04:11:33;12.98;;;9.75;;
68310;SDS011;55157;51.036;17.058;2023-06-10T04:13:58;12.05;;;10.10;;
68310;SDS011;55157;51.036;17.058;2023-06-10T04:16:24;15.48;;;10.35;;
68310;SDS011;55157;51.036;17.058;2023-06-10T04:18:49;11.77;;;10.23;;
68310;SDS011;55157;51.036;17.058;2023-06-10T04:21:14;11.63;;;10.25;;
68310;SDS011;55157;51.036;17.058;2023-06-10T04:23:39;13.48;;;10.77;;
68310;SDS011;55157;51.036;17.058;2023-06-10T04:26:05;12.50;;;10.18;;
68310;SDS011;55157;51.036;17.058;2023-06-10T04:28:31;13.13;;;11.30;;
68310;SDS011;55157;51.036;17.058;2023-06-10T04:30:56;16.98;;;11.25;;
68310;SDS011;55157;51.036;17.058;2023-06-10T04:33:22;11.32;;;10.10;;
68310;SDS011;55157;51.036;17.058;2023-06-10T04:35:47;11.02;;;9.75;;
68310;SDS011;55157;51.036;17.058;2023-06-10T04:38:12;13.20;;;10.13;;
68310;SDS011;55157;51.036;17.058;2023-06-10T04:40:37;15.85;;;11.68;;
68310;SDS011;55157;51.036;17.058;2023-06-10T04:43:03;13.60;;;11.10;;
68310;SDS011;55157;51.036;17.058;2023-06-10T04:45:30;13.73;;;10.80;;
68310;SDS011;55157;51.036;17.058;2023-06-10T04:47:55;12.95;;;11.55;;
68310;SDS011;55157;51.036;17.058;2023-06-10T04:50:20;13.73;;;12.32;;
68310;SDS011;55157;51.036;17.058;2023-06-10T04:52:45;12.98;;;11.60;;
68310;SDS011;55157;51.036;17.058;2023-06-10T04:55:11;16.25;;;12.50;;
68310;SDS011;55157;51.036;17.058;2023-06-10T04:57:36;14.68;;;11.63;;
68310;SDS011;55157;51.036;17.058;2023-06-10T05:00:01;15.00;;;12.40;;
68310;SDS011;55157;51.036;17.058;2023-06-10T05:02:28;13.13;;;11.25;;
68310;SDS011;55157;51.036;17.058;2023-06-10T05:04:53;12.82;;;11.50;;
68310;SDS011;55157;51.036;17.058;2023-06-10T05:07:18;13.68;;;11.30;;
68310;SDS011;55157;51.036;17.058;2023-06-10T05:09:44;13.05;;;11.75;;
68310;SDS011;55157;51.036;17.058;2023-06-10T05:12:09;15.80;;;11.88;;
68310;SDS011;55157;51.036;17.058;2023-06-10T05:14:34;14.07;;;12.70;;
68310;SDS011;55157;51.036;17.058;2023-06-10T05:16:59;14.65;;;13.18;;
68310;SDS011;55157;51.036;17.058;2023-06-10T05:19:26;16.15;;;12.00;;
68310;SDS011;55157;51.036;17.058;2023-06-10T05:21:51;14.23;;;12.82;;
68310;SDS011;55157;51.036;17.058;2023-06-10T05:24:17;14.85;;;13.27;;
68310;SDS011;55157;51.036;17.058;2023-06-10T05:26:42;13.77;;;12.38;;
68310;SDS011;55157;51.036;17.058;2023-06-10T05:29:07;16.40;;;14.70;;
68310;SDS011;55157;51.036;17.058;2023-06-10T05:31:32;15.80;;;14.10;;
68310;SDS011;55157;51.036;17.058;2023-06-10T05:33:58;14.57;;;12.98;;
68310;SDS011;55157;51.036;17.058;2023-06-10T05:36:24;16.33;;;13.93;;
68310;SDS011;55157;51.036;17.058;2023-06-10T05:38:49;15.68;;;13.80;;
68310;SDS011;55157;51.036;17.058;2023-06-10T05:41:15;15.23;;;13.63;;
68310;SDS011;55157;51.036;17.058;2023-06-10T05:43:40;15.52;;;12.73;;
68310;SDS011;55157;51.036;17.058;2023-06-10T05:46:05;16.50;;;14.02;;
68310;SDS011;55157;51.036;17.058;2023-06-10T05:48:31;16.45;;;14.05;;
68310;SDS011;55157;51.036;17.058;2023-06-10T05:50:56;17.73;;;13.50;;
68310;SDS011;55157;51.036;17.058;2023-06-10T05:53:23;16.70;;;12.85;;
68310;SDS011;55157;51.036;17.058;2023-06-10T05:55:48;18.63;;;13.75;;
68310;SDS011;55157;51.036;17.058;2023-06-10T05:58:13;15.68;;;13.93;;
68310;SDS011;55157;51.036;17.058;2023-06-10T06:00:39;16.10;;;14.23;;
68310;SDS011;55157;51.036;17.058;2023-06-10T06:03:05;15.05;;;13.55;;
68310;SDS011;55157;51.036;17.058;2023-06-10T06:05:31;17.55;;;13.32;;
68310;SDS011;55157;51.036;17.058;2023-06-10T06:07:57;19.05;;;15.43;;
68310;SDS011;55157;51.036;17.058;2023-06-10T06:10:24;35.67;;;15.13;;
68310;SDS011;55157;51.036;17.058;2023-06-10T06:12:49;16.27;;;13.40;;
68310;SDS011;55157;51.036;17.058;2023-06-10T06:15:15;15.57;;;12.75;;
68310;SDS011;55157;51.036;17.058;2023-06-10T06:17:40;18.73;;;13.10;;
68310;SDS011;55157;51.036;17.058;2023-06-10T06:20:06;14.27;;;12.80;;
68310;SDS011;55157;51.036;17.058;2023-06-10T06:22:31;16.27;;;13.95;;
68310;SDS011;55157;51.036;17.058;2023-06-10T06:24:56;18.27;;;13.63;;
68310;SDS011;55157;51.036;17.058;2023-06-10T06:27:23;15.48;;;13.55;;
68310;SDS011;55157;51.036;17.058;2023-06-10T06:29:48;17.90;;;14.88;;
68310;SDS011;55157;51.036;17.058;2023-06-10T06:32:14;15.80;;;14.10;;
68310;SDS011;55157;51.036;17.058;2023-06-10T06:34:39;16.38;;;13.95;;
68310;SDS011;55157;51.036;17.058;2023-06-10T06:37:04;16.30;;;14.20;;
68310;SDS011;55157;51.036;17.058;2023-06-10T06:39:30;16.75;;;13.73;;
68310;SDS011;55157;51.036;17.058;2023-06-10T06:41:55;19.27;;;13.07;;
68310;SDS011;55157;51.036;17.058;2023-06-10T06:44:21;14.20;;;12.70;;
68310;SDS011;55157;51.036;17.058;2023-06-10T06:46:47;16.20;;;12.82;;
68310;SDS011;55157;51.036;17.058;2023-06-10T06:49:12;18.30;;;13.20;;
68310;SDS011;55157;51.036;17.058;2023-06-10T06:51:37;15.73;;;11.75;;
68310;SDS011;55157;51.036;17.058;2023-06-10T06:54:03;12.55;;;11.13;;
68310;SDS011;55157;51.036;17.058;2023-06-10T06:56:28;16.33;;;11.32;;
68310;SDS011;55157;51.036;17.058;2023-06-10T06:58:53;15.75;;;11.98;;
68310;SDS011;55157;51.036;17.058;2023-06-10T07:01:20;13.00;;;11.60;;
68310;SDS011;55157;51.036;17.058;2023-06-10T07:03:45;16.27;;;11.38;;
68310;SDS011;55157;51.036;17.058;2023-06-10T07:06:12;16.05;;;12.00;;
68310;SDS011;55157;51.036;17.058;2023-06-10T07:08:38;15.70;;;12.13;;
68310;SDS011;55157;51.036;17.058;2023-06-10T07:11:03;13.75;;;12.30;;
68310;SDS011;55157;51.036;17.058;2023-06-10T07:13:28;16.92;;;12.20;;
68310;SDS011;55157;51.036;17.058;2023-06-10T07:15:53;13.52;;;11.90;;
68310;SDS011;55157;51.036;17.058;2023-06-10T07:18:20;15.18;;;12.25;;
68310;SDS011;55157;51.036;17.058;2023-06-10T07:20:45;16.40;;;11.98;;
68310;SDS011;55157;51.036;17.058;2023-06-10T07:23:11;13.32;;;11.80;;
68310;SDS011;55157;51.036;17.058;2023-06-10T07:25:36;15.23;;;11.93;;
68310;SDS011;55157;51.036;17.058;2023-06-10T07:28:01;15.20;;;12.00;;
68310;SDS011;55157;51.036;17.058;2023-06-10T07:30:27;20.08;;;12.40;;
68310;SDS011;55157;51.036;17.058;2023-06-10T07:32:52;17.58;;;11.80;;
68310;SDS011;55157;51.036;17.058;2023-06-10T07:35:19;15.57;;;11.48;;
68310;SDS011;55157;51.036;17.058;2023-06-10T07:37:44;12.98;;;11.38;;
68310;SDS011;55157;51.036;17.058;2023-06-10T07:40:10;14.52;;;11.32;;
68310;SDS011;55157;51.036;17.058;2023-06-10T07:42:35;16.33;;;12.25;;
68310;SDS011;55157;51.036;17.058;2023-06-10T07:45:01;13.25;;;11.88;;
68310;SDS011;55157;51.036;17.058;2023-06-10T07:47:26;15.10;;;11.63;;
68310;SDS011;55157;51.036;17.058;2023-06-10T07:49:51;13.15;;;11.70;;
68310;SDS011;55157;51.036;17.058;2023-06-10T07:52:18;15.43;;;12.05;;
68310;SDS011;55157;51.036;17.058;2023-06-10T07:54:43;15.77;;;11.25;;
68310;SDS011;55157;51.036;17.058;2023-06-10T07:57:08;17.25;;;11.55;;
68310;SDS011;55157;51.036;17.058;2023-06-10T07:59:33;12.73;;;11.43;;
68310;SDS011;55157;51.036;17.058;2023-06-10T08:01:59;12.35;;;9.20;;
68310;SDS011;55157;51.036;17.058;2023-06-10T08:04:24;11.85;;;10.43;;
68310;SDS011;55157;51.036;17.058;2023-06-10T08:06:49;15.82;;;9.50;;
68310;SDS011;55157;51.036;17.058;2023-06-10T08:09:16;11.43;;;9.98;;
68310;SDS011;55157;51.036;17.058;2023-06-10T08:11:41;12.52;;;10.23;;
68310;SDS011;55157;51.036;17.058;2023-06-10T08:14:07;14.52;;;10.88;;
68310;SDS011;55157;51.036;17.058;2023-06-10T08:16:32;10.60;;;9.50;;
68310;SDS011;55157;51.036;17.058;2023-06-10T08:18:57;12.65;;;8.60;;
68310;SDS011;55157;51.036;17.058;2023-06-10T08:21:22;14.73;;;9.25;;
68310;SDS011;55157;51.036;17.058;2023-06-10T08:23:48;9.95;;;8.13;;
68310;SDS011;55157;51.036;17.058;2023-06-10T08:26:14;9.48;;;7.90;;
68310;SDS011;55157;51.036;17.058;2023-06-10T08:28:39;9.55;;;7.72;;
68310;SDS011;55157;51.036;17.058;2023-06-10T08:31:05;11.60;;;8.52;;
68310;SDS011;55157;51.036;17.058;2023-06-10T08:33:30;11.75;;;7.28;;
68310;SDS011;55157;51.036;17.058;2023-06-10T08:35:55;7.90;;;7.03;;
68310;SDS011;55157;51.036;17.058;2023-06-10T08:38:20;10.20;;;7.05;;
68310;SDS011;55157;51.036;17.058;2023-06-10T08:40:46;10.27;;;6.85;;
68310;SDS011;55157;51.036;17.058;2023-06-10T08:43:15;8.98;;;7.00;;
68310;SDS011;55157;51.036;17.058;2023-06-10T08:45:42;9.27;;;6.50;;
68310;SDS011;55157;51.036;17.058;2023-06-10T08:48:07;8.55;;;6.57;;
68310;SDS011;55157;51.036;17.058;2023-06-10T08:50:33;8.23;;;6.53;;
68310;SDS011;55157;51.036;17.058;2023-06-10T08:52:59;13.40;;;5.95;;
68310;SDS011;55157;51.036;17.058;2023-06-10T08:55:27;6.68;;;5.97;;
68310;SDS011;55157;51.036;17.058;2023-06-10T08:57:52;10.88;;;6.25;;
68310;SDS011;55157;51.036;17.058;2023-06-10T09:00:19;7.90;;;5.95;;
68310;SDS011;55157;51.036;17.058;2023-06-10T09:02:45;8.70;;;5.22;;
68310;SDS011;55157;51.036;17.058;2023-06-10T09:05:10;5.90;;;5.28;;
68310;SDS011;55157;51.036;17.058;2023-06-10T09:07:36;6.25;;;5.10;;
68310;SDS011;55157;51.036;17.058;2023-06-10T09:10:01;7.03;;;4.68;;
68310;SDS011;55157;51.036;17.058;2023-06-10T09:12:26;8.27;;;4.85;;
68310;SDS011;55157;51.036;17.058;2023-06-10T09:14:52;9.70;;;5.20;;
68310;SDS011;55157;51.036;17.058;2023-06-10T09:17:18;7.35;;;4.80;;
68310;SDS011;55157;51.036;17.058;2023-06-10T09:19:44;7.57;;;4.53;;
68310;SDS011;55157;51.036;17.058;2023-06-10T09:22:09;7.22;;;4.55;;
68310;SDS011;55157;51.036;17.058;2023-06-10T09:24:35;6.30;;;4.22;;
68310;SDS011;55157;51.036;17.058;2023-06-10T09:27:03;8.18;;;4.00;;
68310;SDS011;55157;51.036;17.058;2023-06-10T09:29:29;5.10;;;3.97;;
68310;SDS011;55157;51.036;17.058;2023-06-10T09:31:54;6.72;;;4.00;;
68310;SDS011;55157;51.036;17.058;2023-06-10T09:34:24;5.13;;;3.53;;
68310;SDS011;55157;51.036;17.058;2023-06-10T09:36:50;5.85;;;4.07;;
68310;SDS011;55157;51.036;17.058;2023-06-10T09:39:16;6.97;;;4.57;;
68310;SDS011;55157;51.036;17.058;2023-06-10T09:41:41;7.20;;;3.97;;
68310;SDS011;55157;51.036;17.058;2023-06-10T09:44:09;6.97;;;4.00;;
68310;SDS011;55157;51.036;17.058;2023-06-10T09:46:36;5.00;;;4.03;;
68310;SDS011;55157;51.036;17.058;2023-06-10T09:49:01;5.33;;;4.20;;
68310;SDS011;55157;51.036;17.058;2023-06-10T09:51:28;6.75;;;4.45;;
68310;SDS011;55157;51.036;17.058;2023-06-10T09:53:53;7.72;;;4.63;;
68310;SDS011;55157;51.036;17.058;2023-06-10T09:56:19;6.10;;;4.63;;
68310;SDS011;55157;51.036;17.058;2023-06-10T09:58:44;5.93;;;5.07;;
68310;SDS011;55157;51.036;17.058;2023-06-10T10:01:11;6.38;;;4.88;;
68310;SDS011;55157;51.036;17.058;2023-06-10T10:03:43;9.77;;;4.70;;
68310;SDS011;55157;51.036;17.058;2023-06-10T10:06:08;6.97;;;4.70;;
68310;SDS011;55157;51.036;17.058;2023-06-10T10:08:35;6.35;;;4.60;;
68310;SDS011;55157;51.036;17.058;2023-06-10T10:11:00;7.20;;;4.65;;
68310;SDS011;55157;51.036;17.058;2023-06-10T10:13:26;6.32;;;5.00;;
68310;SDS011;55157;51.036;17.058;2023-06-10T10:15:52;7.57;;;5.00;;
68310;SDS011;55157;51.036;17.058;2023-06-10T10:18:18;7.40;;;4.88;;
68310;SDS011;55157;51.036;17.058;2023-06-10T10:20:46;7.82;;;5.32;;
68310;SDS011;55157;51.036;17.058;2023-06-10T10:23:11;8.98;;;4.88;;
68310;SDS011;55157;51.036;17.058;2023-06-10T10:25:40;6.65;;;4.95;;
68310;SDS011;55157;51.036;17.058;2023-06-10T10:28:08;6.00;;;4.53;;
68310;SDS011;55157;51.036;17.058;2023-06-10T10:30:35;6.43;;;4.75;;
68310;SDS011;55157;51.036;17.058;2023-06-10T10:33:04;5.32;;;4.75;;
68310;SDS011;55157;51.036;17.058;2023-06-10T10:35:30;5.65;;;4.25;;
68310;SDS011;55157;51.036;17.058;2023-06-10T10:37:55;7.23;;;5.40;;
68310;SDS011;55157;51.036;17.058;2023-06-10T10:40:20;7.27;;;4.70;;
68310;SDS011;55157;51.036;17.058;2023-06-10T10:42:48;7.40;;;4.95;;
68310;SDS011;55157;51.036;17.058;2023-06-10T10:45:14;7.47;;;5.25;;
68310;SDS011;55157;51.036;17.058;2023-06-10T10:47:39;7.43;;;5.53;;
68310;SDS011;55157;51.036;17.058;2023-06-10T10:50:12;6.93;;;5.07;;
68310;SDS011;55157;51.036;17.058;2023-06-10T10:52:46;8.90;;;5.88;;
68310;SDS011;55157;51.036;17.058;2023-06-10T10:55:12;9.18;;;5.63;;
68310;SDS011;55157;51.036;17.058;2023-06-10T10:57:38;9.80;;;5.70;;
68310;SDS011;55157;51.036;17.058;2023-06-10T11:00:05;7.43;;;6.00;;
68310;SDS011;55157;51.036;17.058;2023-06-10T11:02:35;8.52;;;6.10;;
68310;SDS011;55157;51.036;17.058;2023-06-10T11:05:00;9.23;;;6.53;;
68310;SDS011;55157;51.036;17.058;2023-06-10T11:07:26;10.65;;;5.57;;
68310;SDS011;55157;51.036;17.058;2023-06-10T11:09:57;10.32;;;5.95;;
68310;SDS011;55157;51.036;17.058;2023-06-10T11:12:23;9.52;;;6.70;;
68310;SDS011;55157;51.036;17.058;2023-06-10T11:14:51;9.20;;;6.27;;
68310;SDS011;55157;51.036;17.058;2023-06-10T11:17:20;9.93;;;6.20;;
68310;SDS011;55157;51.036;17.058;2023-06-10T11:19:45;8.82;;;6.72;;
68310;SDS011;55157;51.036;17.058;2023-06-10T11:22:14;9.43;;;6.53;;
68310;SDS011;55157;51.036;17.058;2023-06-10T11:24:40;39.15;;;15.27;;
68310;SDS011;55157;51.036;17.058;2023-06-10T11:27:15;16.07;;;7.97;;
68310;SDS011;55157;51.036;17.058;2023-06-10T11:32:30;6.72;;;5.60;;
68310;SDS011;55157;51.036;17.058;2023-06-10T11:34:56;10.52;;;7.03;;
68310;SDS011;55157;51.036;17.058;2023-06-10T11:37:21;7.43;;;5.68;;
68310;SDS011;55157;51.036;17.058;2023-06-10T11:39:46;13.82;;;6.63;;
68310;SDS011;55157;51.036;17.058;2023-06-10T11:42:11;10.32;;;6.32;;
68310;SDS011;55157;51.036;17.058;2023-06-10T11:44:37;9.35;;;7.00;;
68310;SDS011;55157;51.036;17.058;2023-06-10T11:47:02;7.70;;;6.03;;
68310;SDS011;55157;51.036;17.058;2023-06-10T11:49:29;16.02;;;6.35;;
68310;SDS011;55157;51.036;17.058;2023-06-10T11:51:54;11.38;;;6.13;;
68310;SDS011;55157;51.036;17.058;2023-06-10T11:54:20;11.90;;;5.93;;
68310;SDS011;55157;51.036;17.058;2023-06-10T11:56:45;11.75;;;6.97;;
68310;SDS011;55157;51.036;17.058;2023-06-10T11:59:11;12.50;;;7.22;;
68310;SDS011;55157;51.036;17.058;2023-06-10T12:01:36;10.33;;;6.30;;
68310;SDS011;55157;51.036;17.058;2023-06-10T12:04:03;13.95;;;6.18;;
68310;SDS011;55157;51.036;17.058;2023-06-10T12:06:38;8.25;;;6.25;;
68310;SDS011;55157;51.036;17.058;2023-06-10T12:09:03;6.65;;;5.95;;
68310;SDS011;55157;51.036;17.058;2023-06-10T12:11:29;9.20;;;5.73;;
68310;SDS011;55157;51.036;17.058;2023-06-10T12:13:54;9.85;;;5.45;;
68310;SDS011;55157;51.036;17.058;2023-06-10T12:16:19;5.97;;;5.30;;
68310;SDS011;55157;51.036;17.058;2023-06-10T12:18:44;5.65;;;4.47;;
68310;SDS011;55157;51.036;17.058;2023-06-10T12:21:16;6.13;;;5.50;;
68310;SDS011;55157;51.036;17.058;2023-06-10T12:26:34;7.45;;;4.97;;
68310;SDS011;55157;51.036;17.058;2023-06-10T12:28:59;5.70;;;4.43;;
68310;SDS011;55157;51.036;17.058;2023-06-10T12:31:25;6.83;;;4.80;;
68310;SDS011;55157;51.036;17.058;2023-06-10T12:33:50;8.80;;;4.60;;
68310;SDS011;55157;51.036;17.058;2023-06-10T12:36:32;10.68;;;5.00;;
68310;SDS011;55157;51.036;17.058;2023-06-10T12:39:02;13.48;;;5.28;;
68310;SDS011;55157;51.036;17.058;2023-06-10T12:41:28;9.57;;;4.57;;
68310;SDS011;55157;51.036;17.058;2023-06-10T12:43:55;5.80;;;4.40;;
68310;SDS011;55157;51.036;17.058;2023-06-10T12:46:20;5.97;;;4.50;;
68310;SDS011;55157;51.036;17.058;2023-06-10T12:48:49;6.23;;;4.63;;
68310;SDS011;55157;51.036;17.058;2023-06-10T12:51:14;5.90;;;5.07;;
68310;SDS011;55157;51.036;17.058;2023-06-10T12:53:40;6.97;;;5.00;;
68310;SDS011;55157;51.036;17.058;2023-06-10T12:56:05;5.33;;;4.70;;
68310;SDS011;55157;51.036;17.058;2023-06-10T12:58:30;6.93;;;4.18;;
68310;SDS011;55157;51.036;17.058;2023-06-10T13:00:57;11.87;;;4.93;;
68310;SDS011;55157;51.036;17.058;2023-06-10T13:03:22;7.68;;;4.88;;
68310;SDS011;55157;51.036;17.058;2023-06-10T13:05:48;6.97;;;4.87;;
68310;SDS011;55157;51.036;17.058;2023-06-10T13:08:13;10.63;;;4.40;;
68310;SDS011;55157;51.036;17.058;2023-06-10T13:10:38;8.27;;;4.40;;
68310;SDS011;55157;51.036;17.058;2023-06-10T13:13:04;8.18;;;4.43;;
68310;SDS011;55157;51.036;17.058;2023-06-10T13:15:29;8.25;;;3.35;;
68310;SDS011;55157;51.036;17.058;2023-06-10T13:17:56;5.37;;;3.33;;
68310;SDS011;55157;51.036;17.058;2023-06-10T13:20:21;6.00;;;4.07;;
68310;SDS011;55157;51.036;17.058;2023-06-10T13:22:46;7.33;;;3.57;;
68310;SDS011;55157;51.036;17.058;2023-06-10T13:25:12;10.32;;;3.45;;
68310;SDS011;55157;51.036;17.058;2023-06-10T13:27:37;30.17;;;5.03;;
68310;SDS011;55157;51.036;17.058;2023-06-10T13:30:02;18.73;;;3.72;;
68310;SDS011;55157;51.036;17.058;2023-06-10T13:32:28;6.70;;;4.28;;
68310;SDS011;55157;51.036;17.058;2023-06-10T13:34:54;5.60;;;3.40;;
68310;SDS011;55157;51.036;17.058;2023-06-10T13:37:20;6.07;;;2.78;;
68310;SDS011;55157;51.036;17.058;2023-06-10T13:39:45;9.90;;;3.58;;
68310;SDS011;55157;51.036;17.058;2023-06-10T13:42:10;5.00;;;2.97;;
68310;SDS011;55157;51.036;17.058;2023-06-10T13:44:36;6.57;;;3.00;;
68310;SDS011;55157;51.036;17.058;2023-06-10T13:47:01;5.68;;;2.92;;
68310;SDS011;55157;51.036;17.058;2023-06-10T13:49:26;8.07;;;3.10;;
68310;SDS011;55157;51.036;17.058;2023-06-10T13:51:53;10.07;;;3.77;;
68310;SDS011;55157;51.036;17.058;2023-06-10T13:54:18;7.70;;;3.28;;
68310;SDS011;55157;51.036;17.058;2023-06-10T13:56:43;4.80;;;2.90;;
68310;SDS011;55157;51.036;17.058;2023-06-10T13:59:09;4.40;;;2.97;;
68310;SDS011;55157;51.036;17.058;2023-06-10T14:01:34;6.43;;;3.30;;
68310;SDS011;55157;51.036;17.058;2023-06-10T14:03:59;5.37;;;3.07;;
68310;SDS011;55157;51.036;17.058;2023-06-10T14:06:24;5.20;;;2.60;;
68310;SDS011;55157;51.036;17.058;2023-06-10T14:08:51;4.43;;;2.90;;
68310;SDS011;55157;51.036;17.058;2023-06-10T14:11:17;6.53;;;3.70;;
68310;SDS011;55157;51.036;17.058;2023-06-10T14:13:42;8.13;;;2.83;;
68310;SDS011;55157;51.036;17.058;2023-06-10T14:16:07;4.30;;;3.00;;